Weather observations for the past three days for
Harvey Municipal Airport
| Date | Time (cdt) | Wind (mph) | Vis. (mi.) | Weather | Sky Cond. | Temperature (ºF) | Relative Humidity | Wind Chill (°F) | Heat Index (°F) | Pressure | Precipitation (in) | ||||||
|---|---|---|---|---|---|---|---|---|---|---|---|---|---|---|---|---|---|
| Air | Dwpt | 6 hour | altimeter (in) | sea level (mb) | 1 hr | 3 hr | 6 hr | ||||||||||
| Max. | Min. | ||||||||||||||||
| 06 | 12:35 | NW 14 | 10.00 | Overcast | BKN050 OVC055 | 42.8 | 17.6 | 36% | 36 | 30.04 | 0.0 | ||||||
| 06 | 12:15 | NW 6 G 15 | 10.00 | Overcast | BKN050 OVC055 | 41 | 17.6 | 39% | 38 | 30.04 | 0.0 | ||||||
| 06 | 11:55 | N 12 | 10.00 | Overcast | OVC050 | 41 | 17.6 | 39% | 35 | 30.05 | 0.0 | ||||||
| 06 | 11:35 | N 9 G 16 | 10.00 | Overcast | FEW050 OVC060 | 41 | 17.6 | 39% | 36 | 30.05 | 0.0 | ||||||
| 06 | 11:15 | N 9 | 10.00 | Overcast | OVC060 | 41 | 17.6 | 39% | 36 | 30.05 | 0.0 | ||||||
| 06 | 10:55 | NW 8 | 10.00 | Partly Cloudy | SCT060 | 41 | 19.4 | 42% | 36 | 30.06 | 0.0 | ||||||
| 06 | 10:35 | NW 9 | 10.00 | Partly Cloudy | FEW042 SCT060 | 39.2 | 19.4 | 45% | 34 | 30.06 | 0.0 | ||||||
| 06 | 10:15 | NW 3 G 15 | 10.00 | Partly Cloudy | SCT040 SCT065 | 37.4 | 19.4 | 48% | 30.07 | 0.0 | |||||||
| 06 | 09:55 | Vrbl 7 | 10.00 | Mostly Cloudy | BKN040 | 37.4 | 19.4 | 48% | 33 | 30.07 | 0.0 | ||||||
| 06 | 09:35 | W 8 | 10.00 | Mostly Cloudy | BKN038 | 37.4 | 19.4 | 48% | 32 | 30.07 | 0.0 | ||||||
| 06 | 09:15 | W 10 | 10.00 | Fair | CLR | 37.4 | 19.4 | 48% | 31 | 30.07 | 0.0 | ||||||
| 06 | 08:55 | NW 9 | 10.00 | Fair | CLR | 35.6 | 21.2 | 56% | 29 | 30.07 | 0.0 | ||||||
| 06 | 08:35 | NW 9 | 10.00 | Partly Cloudy | SCT040 | 33.8 | 23 | 65% | 27 | 30.07 | 0.0 | ||||||
| 06 | 08:15 | NW 7 | 10.00 | Overcast | OVC040 | 32 | 24.8 | 75% | 26 | 30.07 | 0.0 | ||||||
| 06 | 07:55 | W 7 | 10.00 | Overcast | OVC040 | 32 | 24.8 | 75% | 26 | 30.07 | 0.0 | ||||||
| 06 | 07:35 | NW 8 | 10.00 | Overcast | OVC039 | 30.2 | 24.8 | 80% | 23 | 30.07 | 0.0 | ||||||
| 06 | 07:15 | NW 7 | 10.00 | Overcast | OVC038 | 30.2 | 24.8 | 80% | 24 | 30.06 | 0.0 | ||||||
| 06 | 06:55 | NW 8 | 10.00 | Overcast | OVC039 | 28.4 | 23 | 80% | 21 | 30.06 | 0.0 | ||||||
| 06 | 06:35 | NW 8 | 10.00 | Overcast | OVC039 | 28.4 | 23 | 80% | 21 | 30.05 | 0.0 | ||||||
| 06 | 06:15 | NW 8 | 10.00 | Overcast | OVC039 | 28.4 | 24.8 | 86% | 21 | 30.05 | 0.0 | ||||||
| 06 | 05:55 | NW 8 | 10.00 | Overcast | OVC039 | 26.6 | 23 | 86% | 19 | 30.05 | 0.0 | ||||||
| 06 | 05:35 | W 9 | 10.00 | Overcast | OVC041 | 26.6 | 23 | 86% | 18 | 30.05 | 0.0 | ||||||
| 06 | 05:15 | W 8 | 10.00 | Overcast | BKN039 OVC045 | 28.4 | 23 | 80% | 21 | 30.05 | 0.0 | ||||||
| 06 | 04:55 | W 7 | 10.00 | Overcast | OVC039 | 28.4 | 24.8 | 86% | 22 | 30.05 | 0.0 | ||||||
| 06 | 04:35 | W 5 | 10.00 | Overcast | OVC039 | 28.4 | 24.8 | 86% | 24 | 30.04 | 0.0 | ||||||
| 06 | 04:15 | W 6 | 10.00 | Overcast | OVC040 | 28.4 | 24.8 | 86% | 23 | 30.04 | 0.0 | ||||||
| 06 | 03:55 | NW 6 | 10.00 | Overcast | OVC040 | 28.4 | 23 | 80% | 23 | 30.04 | 0.0 | ||||||
| 06 | 03:35 | W 7 | 10.00 | Overcast | OVC040 | 28.4 | 24.8 | 86% | 22 | 30.04 | 0.0 | ||||||
| 06 | 03:15 | W 5 | 10.00 | Overcast | OVC041 | 26.6 | 23 | 86% | 22 | 30.04 | 0.0 | ||||||
| 06 | 02:55 | SW 5 | 10.00 | Overcast | OVC040 | 24.8 | 23 | 93% | 20 | 30.04 | 0.0 | ||||||
| 06 | 02:35 | W 6 | 10.00 | Overcast | OVC041 | 24.8 | 21.2 | 86% | 19 | 30.04 | 0.0 | ||||||
| 06 | 02:15 | Calm | 10.00 | Mostly Cloudy | BKN042 BKN048 | 24.8 | 21.2 | 86% | 30.04 | 0.0 | |||||||
| 06 | 01:55 | Calm | 10.00 | Mostly Cloudy | BKN044 | 24.8 | 19.4 | 80% | 30.04 | 0.0 | |||||||
| 06 | 01:35 | NW 5 | 10.00 | Mostly Cloudy | BKN044 | 24.8 | 21.2 | 86% | 20 | 30.04 | 0.0 | ||||||
| 06 | 00:55 | NW 6 | 10.00 | A Few Clouds | FEW047 | 26.6 | 21.2 | 80% | 21 | 30.04 | 0.0 | ||||||
| 06 | 00:35 | NW 6 | 10.00 | Fair | CLR | 26.6 | 21.2 | 80% | 21 | 30.04 | 0.0 | ||||||
| 06 | 00:15 | NW 6 | 10.00 | Fair | CLR | 28.4 | 21.2 | 74% | 23 | 30.04 | 0.0 | ||||||
| 05 | 23:55 | NW 5 | 10.00 | A Few Clouds | FEW048 | 30.2 | 21.2 | 69% | 26 | 30.03 | 0.0 | ||||||
| 05 | 23:35 | N 3 | 10.00 | Mostly Cloudy | BKN048 | 30.2 | 21.2 | 69% | 30.03 | 0.0 | |||||||
| 05 | 23:15 | N 5 | 10.00 | Overcast | OVC048 | 32 | 21.2 | 64% | 28 | 30.03 | 0.0 | ||||||
| 05 | 22:55 | N 6 | 10.00 | Overcast | OVC048 | 33.8 | 21.2 | 60% | 29 | 30.03 | 0.0 | ||||||
| 05 | 22:35 | N 8 | 10.00 | Overcast | OVC049 | 33.8 | 21.2 | 60% | 28 | 30.03 | 0.0 | ||||||
| 05 | 22:15 | N 6 | 10.00 | Overcast | OVC050 | 33.8 | 21.2 | 60% | 29 | 30.03 | 0.0 | ||||||
| 05 | 21:55 | N 6 | 10.00 | Overcast | OVC049 | 33.8 | 21.2 | 60% | 29 | 30.02 | 0.0 | ||||||
| 05 | 21:35 | N 8 | 10.00 | Overcast | OVC049 | 35.6 | 19.4 | 52% | 30 | 30.02 | 0.0 | ||||||
| 05 | 21:15 | N 7 | 10.00 | Overcast | OVC050 | 35.6 | 19.4 | 52% | 31 | 30.01 | 0.0 | ||||||
| 05 | 20:55 | N 7 | 10.00 | Overcast | OVC050 | 35.6 | 19.4 | 52% | 31 | 30 | 0.0 | ||||||
| 05 | 20:35 | N 8 G 14 | 10.00 | Overcast | OVC050 | 35.6 | 19.4 | 52% | 30 | 30 | 0.0 | ||||||
| 05 | 20:15 | N 10 | 10.00 | Overcast | OVC050 | 35.6 | 19.4 | 52% | 29 | 30 | 0.0 | ||||||
| 05 | 19:55 | N 10 | 10.00 | Overcast | OVC050 | 35.6 | 19.4 | 52% | 29 | 30 | 0.0 | ||||||
| 05 | 19:35 | N 10 G 16 | 10.00 | Overcast | OVC050 | 37.4 | 21.2 | 52% | 31 | 29.99 | 0.0 | ||||||
| 05 | 19:15 | N 12 G 17 | 10.00 | Overcast | OVC050 | 37.4 | 19.4 | 48% | 30 | 29.99 | 0.0 | ||||||
| 05 | 18:55 | N 13 | 10.00 | Overcast | OVC050 | 37.4 | 19.4 | 48% | 30 | 29.99 | 0.0 | ||||||
| 05 | 18:35 | N 15 | 10.00 | Overcast | FEW043 OVC050 | 37.4 | 21.2 | 52% | 29 | 29.99 | 0.0 | ||||||
| 05 | 18:15 | N 15 | 10.00 | Overcast | BKN043 OVC049 | 37.4 | 21.2 | 52% | 29 | 29.99 | 0.0 | ||||||
| 05 | 17:55 | NW 15 | 10.00 | Overcast | OVC046 | 37.4 | 21.2 | 52% | 29 | 29.99 | 0.0 | ||||||
| 05 | 17:35 | NW 18 | 10.00 | Light Unknown Precip | OVC041 | 37.4 | 21.2 | 52% | 28 | 29.98 | 0.0 | ||||||
| 05 | 17:15 | N 16 | 10.00 | Overcast | BKN040 OVC049 | 37.4 | 21.2 | 52% | 29 | 29.98 | 0.0 | ||||||
| 05 | 16:55 | N 14 | 10.00 | Overcast | SCT041 OVC049 | 37.4 | 21.2 | 52% | 30 | 29.98 | 0.0 | ||||||
| 05 | 16:35 | NW 13 G 20 | 10.00 | Overcast | OVC041 | 37.4 | 21.2 | 52% | 30 | 29.98 | 0.0 | ||||||
| 05 | 16:15 | N 14 G 21 | 10.00 | Overcast | OVC043 | 37.4 | 21.2 | 52% | 30 | 29.98 | 0.0 | ||||||
| 05 | 15:55 | NW 15 | 10.00 | Overcast | OVC044 | 39.2 | 19.4 | 45% | 31 | 29.97 | 0.0 | ||||||
| 05 | 15:35 | NW 14 G 23 | 10.00 | Light Unknown Precip | OVC044 | 39.2 | 19.4 | 45% | 32 | 29.97 | 0.0 | ||||||
| 05 | 15:15 | NW 16 G 23 | 10.00 | Light Unknown Precip | OVC045 | 39.2 | 19.4 | 45% | 31 | 29.97 | 0.0 | ||||||
| 05 | 14:55 | NW 16 | 10.00 | Overcast | OVC044 | 37.4 | 19.4 | 48% | 29 | 29.97 | 0.0 | ||||||
| 05 | 14:35 | NW 16 G 23 | 10.00 | Light Unknown Precip | OVC043 | 37.4 | 19.4 | 48% | 29 | 29.96 | 0.0 | ||||||
| 05 | 14:15 | NW 20 | 10.00 | Light Unknown Precip | OVC044 | 39.2 | 19.4 | 45% | 30 | 29.96 | 0.0 | ||||||
| 05 | 13:55 | NW 18 | 10.00 | Light Unknown Precip | OVC042 | 37.4 | 19.4 | 48% | 28 | 29.96 | 0.0 | ||||||
| 05 | 13:35 | NW 15 G 23 | 10.00 | Overcast | OVC042 | 37.4 | 19.4 | 48% | 29 | 29.96 | 0.0 | ||||||
| 05 | 13:15 | NW 16 G 23 | 10.00 | Light Unknown Precip | BKN041 OVC046 | 37.4 | 19.4 | 48% | 29 | 29.96 | 0.0 | ||||||
| 05 | 12:55 | NW 16 G 26 | 10.00 | Light Unknown Precip | BKN040 OVC047 | 37.4 | 21.2 | 52% | 29 | 29.96 | 0.0 | ||||||
| 05 | 12:35 | NW 18 G 26 | 10.00 | Light Unknown Precip | BKN041 OVC048 | 37.4 | 19.4 | 48% | 28 | 29.96 | 0.0 | ||||||
| 05 | 12:15 | NW 22 | 10.00 | Overcast and Breezy | OVC048 | 37.4 | 19.4 | 48% | 27 | 29.95 | 0.0 | ||||||
| 05 | 11:55 | NW 21 G 30 | 10.00 | Light Unknown Precip and Breezy | SCT042 OVC049 | 37.4 | 19.4 | 48% | 28 | 29.95 | 0.0 | ||||||
| 05 | 11:35 | NW 22 | 10.00 | Light Unknown Precip and Breezy | SCT043 OVC050 | 39.2 | 19.4 | 45% | 30 | 29.94 | 0.0 | ||||||
| 05 | 11:15 | NW 17 G 28 | 10.00 | Light Unknown Precip | BKN043 OVC049 | 37.4 | 19.4 | 48% | 29 | 29.94 | 0.0 | ||||||
| 05 | 10:55 | NW 15 G 22 | 10.00 | Light Unknown Precip | BKN041 OVC048 | 37.4 | 19.4 | 48% | 29 | 29.94 | 0.0 | ||||||
| 05 | 10:35 | NW 16 G 24 | 10.00 | Mostly Cloudy | BKN044 BKN050 BKN060 | 39.2 | 19.4 | 45% | 31 | 29.94 | 0.0 | ||||||
| 05 | 10:15 | N 18 G 29 | 10.00 | Light Unknown Precip | FEW043 FEW060 | 39.2 | 19.4 | 45% | 31 | 29.93 | 0.0 | ||||||
| 05 | 09:55 | NW 16 G 24 | 10.00 | Light Unknown Precip | CLR | 39.2 | 17.6 | 42% | 31 | 29.93 | 0.0 | ||||||
| 05 | 09:35 | NW 20 | 10.00 | Light Unknown Precip | CLR | 37.4 | 17.6 | 45% | 28 | 29.93 | 0.0 | ||||||
| 05 | 09:15 | NW 21 | 10.00 | Light Unknown Precip and Breezy | CLR | 37.4 | 17.6 | 45% | 28 | 29.92 | 0.0 | ||||||
| 05 | 08:55 | N 15 G 21 | 10.00 | A Few Clouds | FEW047 FEW055 | 35.6 | 21.2 | 56% | 27 | 29.92 | 0.0 | ||||||
| 05 | 08:35 | NW 12 | 10.00 | Fair | CLR | 35.6 | 23 | 60% | 28 | 29.92 | 0.0 | ||||||
| 05 | 08:15 | NW 13 | 10.00 | Fair | CLR | 33.8 | 23 | 65% | 25 | 29.91 | 0.0 | ||||||
| 05 | 07:55 | NW 15 | 10.00 | Light Unknown Precip | CLR | 32 | 21.2 | 64% | 22 | 29.9 | 0.0 | ||||||
| 05 | 07:35 | NW 15 | 10.00 | Light Unknown Precip | CLR | 32 | 21.2 | 64% | 22 | 29.89 | 0.0 | ||||||
| 05 | 07:15 | NW 13 | 10.00 | Fair | CLR | 32 | 21.2 | 64% | 23 | 29.89 | 0.0 | ||||||
| 05 | 06:55 | NW 13 | 10.00 | Mostly Cloudy | BKN065 | 30.2 | 21.2 | 69% | 21 | 29.88 | 0.0 | ||||||
| 05 | 06:35 | NW 10 | 10.00 | Mostly Cloudy | FEW060 BKN070 | 30.2 | 23 | 75% | 22 | 29.88 | 0.0 | ||||||
| 05 | 06:15 | NW 10 | 10.00 | Partly Cloudy | FEW060 SCT070 | 30.2 | 21.2 | 69% | 22 | 29.87 | 0.0 | ||||||
| 05 | 05:55 | NW 13 | 10.00 | Overcast | SCT060 OVC070 | 32 | 23 | 69% | 23 | 29.87 | 0.0 | ||||||
| 05 | 05:35 | NW 14 | 10.00 | Overcast | OVC070 | 32 | 23 | 69% | 23 | 29.86 | 0.0 | ||||||
| 05 | 05:15 | NW 13 | 10.00 | Light Unknown Precip | OVC070 | 33.8 | 23 | 65% | 25 | 29.86 | 0.0 | ||||||
| 05 | 04:55 | NW 13 G 20 | 10.00 | Light Unknown Precip | OVC070 | 33.8 | 23 | 65% | 25 | 29.86 | 0.0 | ||||||
| 05 | 04:35 | NW 15 | 10.00 | Overcast | OVC070 | 33.8 | 23 | 65% | 25 | 29.86 | 0.0 | ||||||
| 05 | 04:15 | NW 12 G 18 | 10.00 | Overcast | OVC070 | 33.8 | 24.8 | 70% | 26 | 29.86 | 0.0 | ||||||
| 05 | 03:55 | W 12 | 10.00 | Overcast | OVC070 | 33.8 | 24.8 | 70% | 26 | 29.85 | 0.0 | ||||||
| 05 | 03:35 | W 12 G 17 | 10.00 | Overcast | OVC070 | 33.8 | 24.8 | 70% | 26 | 29.85 | 0.0 | ||||||
| 05 | 03:15 | W 9 | 10.00 | Overcast | OVC070 | 33.8 | 26.6 | 75% | 27 | 29.85 | 0.0 | ||||||
| 05 | 02:55 | W 12 | 10.00 | Overcast | OVC070 | 32 | 26.6 | 80% | 24 | 29.85 | 0.0 | ||||||
| 05 | 02:35 | W 9 | 10.00 | Overcast | OVC070 | 32 | 26.6 | 80% | 25 | 29.85 | 0.0 | ||||||
| 05 | 02:15 | W 9 | 10.00 | Overcast | OVC070 | 32 | 26.6 | 80% | 25 | 29.85 | 0.0 | ||||||
| 05 | 01:55 | W 10 | 10.00 | Overcast | OVC070 | 33.8 | 26.6 | 75% | 26 | 29.85 | 0.0 | ||||||
| 05 | 01:35 | W 10 | 10.00 | Overcast | OVC075 | 33.8 | 24.8 | 70% | 26 | 29.85 | 0.0 | ||||||
| 05 | 01:15 | W 9 | 10.00 | Overcast | OVC075 | 33.8 | 24.8 | 70% | 27 | 29.85 | 0.0 | ||||||
| 05 | 00:55 | W 8 | 10.00 | Overcast | FEW060 OVC075 | 33.8 | 24.8 | 70% | 28 | 29.84 | 0.0 | ||||||
| 05 | 00:35 | NW 7 | 10.00 | Overcast | FEW070 OVC080 | 35.6 | 24.8 | 65% | 31 | 29.84 | 0.0 | ||||||
| 05 | 00:15 | NW 10 | 10.00 | Overcast | OVC080 | 37.4 | 26.6 | 65% | 31 | 29.84 | 0.0 | ||||||
| 04 | 23:55 | NW 10 | 10.00 | Overcast | OVC080 | 37.4 | 26.6 | 65% | 31 | 29.84 | 0.0 | ||||||
| 04 | 23:35 | NW 12 | 10.00 | Overcast | SCT055 BKN065 OVC075 | 37.4 | 26.6 | 65% | 30 | 29.83 | 0.0 | ||||||
| 04 | 23:15 | NW 13 | 10.00 | Light Unknown Precip | FEW050 SCT055 OVC075 | 37.4 | 26.6 | 65% | 30 | 29.83 | 0.0 | ||||||
| 04 | 22:55 | W 10 | 10.00 | Overcast | FEW060 OVC075 | 37.4 | 26.6 | 65% | 31 | 29.83 | 0.0 | ||||||
| 04 | 22:35 | NW 9 | 10.00 | Overcast | FEW060 OVC075 | 37.4 | 26.6 | 65% | 31 | 29.83 | 0.0 | ||||||
| 04 | 22:15 | NW 10 | 10.00 | Overcast | FEW040 SCT050 OVC075 | 37.4 | 26.6 | 65% | 31 | 29.82 | 0.0 | ||||||
| 04 | 21:55 | NW 14 G 20 | 10.00 | Light Unknown Precip | FEW028 BKN039 OVC050 | 39.2 | 26.6 | 61% | 32 | 29.82 | 0.0 | ||||||
| 04 | 21:35 | NW 24 | 10.00 | Overcast and Breezy | FEW037 BKN050 OVC060 | 39.2 | 23 | 52% | 29 | 29.81 | 0.0 | ||||||
| 04 | 21:15 | NW 20 G 25 | 10.00 | Light Unknown Precip | FEW034 SCT043 OVC075 | 41 | 23 | 49% | 33 | 29.8 | 0.0 | ||||||
| 04 | 20:55 | NW 16 | 10.00 | Overcast | OVC075 | 41 | 23 | 49% | 33 | 29.79 | 0.0 | ||||||
| 04 | 20:35 | NW 16 G 23 | 10.00 | Overcast | FEW050 FEW060 OVC075 | 41 | 23 | 49% | 33 | 29.79 | 0.0 | ||||||
| 04 | 20:15 | NW 15 G 26 | 10.00 | Overcast | SCT050 BKN065 OVC075 | 41 | 24.8 | 53% | 34 | 29.79 | 0.0 | ||||||
| 04 | 19:55 | NW 20 G 28 | 10.00 | Overcast | OVC075 | 42.8 | 21.2 | 42% | 35 | 29.78 | 0.0 | ||||||
| 04 | 19:35 | NW 21 G 28 | 10.00 | Overcast and Breezy | FEW065 OVC080 | 42.8 | 21.2 | 42% | 35 | 29.77 | 0.0 | ||||||
| 04 | 19:15 | NW 22 G 29 | 10.00 | Mostly Cloudy and Breezy | FEW065 BKN075 | 44.6 | 19.4 | 37% | 37 | 29.77 | 0.0 | ||||||
| 04 | 18:55 | NW 23 | 10.00 | Mostly Cloudy and Breezy | BKN060 BKN075 | 44.6 | 19.4 | 37% | 37 | 29.76 | 0.0 | ||||||
| 04 | 18:35 | NW 17 G 30 | 10.00 | Mostly Cloudy | SCT060 BKN075 | 44.6 | 19.4 | 37% | 38 | 29.76 | 0.0 | ||||||
| 04 | 18:15 | NW 22 | 10.00 | Mostly Cloudy and Breezy | SCT065 BKN075 | 44.6 | 19.4 | 37% | 37 | 29.76 | 0.0 | ||||||
| 04 | 17:55 | N 23 | 10.00 | Mostly Cloudy and Breezy | BKN060 BKN075 | 44.6 | 19.4 | 37% | 37 | 29.75 | 0.0 | ||||||
| 04 | 17:35 | NW 23 G 30 | 10.00 | Overcast and Breezy | BKN060 OVC075 | 46.4 | 19.4 | 34% | 39 | 29.75 | 0.0 | ||||||
| 04 | 17:15 | NW 22 | 10.00 | Overcast and Breezy | BKN060 OVC070 | 46.4 | 19.4 | 34% | 39 | 29.75 | 0.0 | ||||||
| 04 | 16:55 | NW 18 G 30 | 10.00 | Overcast | OVC070 | 46.4 | 19.4 | 34% | 40 | 29.74 | 0.0 | ||||||
| 04 | 16:35 | NW 20 G 26 | 10.00 | Overcast | BKN065 OVC075 | 46.4 | 19.4 | 34% | 40 | 29.74 | 0.0 | ||||||
| 04 | 16:15 | NW 21 G 29 | 10.00 | Overcast and Breezy | BKN060 OVC070 | 46.4 | 19.4 | 34% | 39 | 29.74 | 0.0 | ||||||
| 04 | 15:55 | NW 22 G 31 | 10.00 | Mostly Cloudy and Breezy | BKN055 BKN065 | 46.4 | 21.2 | 37% | 39 | 29.74 | 0.0 | ||||||
| 04 | 15:35 | NW 20 G 33 | 10.00 | Overcast | BKN050 OVC060 | 46.4 | 23 | 40% | 40 | 29.74 | 0.0 | ||||||
| 04 | 15:15 | NW 23 G 33 | 10.00 | Overcast and Breezy | SCT047 OVC060 | 46.4 | 23 | 40% | 39 | 29.74 | 0.0 | ||||||
| 04 | 14:55 | NW 24 G 33 | 10.00 | Overcast and Breezy | SCT042 SCT048 OVC055 | 44.6 | 24.8 | 46% | 36 | 29.74 | 0.0 | ||||||
| 04 | 14:35 | NW 24 G 36 | 10.00 | Mostly Cloudy and Breezy | FEW041 SCT047 BKN055 | 44.6 | 26.6 | 49% | 36 | 29.74 | 0.0 | ||||||
| 04 | 14:15 | NW 23 G 30 | 10.00 | Overcast and Breezy | FEW040 SCT047 OVC055 | 44.6 | 26.6 | 49% | 37 | 29.73 | 0.0 | ||||||
| 04 | 13:55 | NW 22 G 31 | 10.00 | Overcast and Breezy | SCT040 BKN048 OVC060 | 46.4 | 28.4 | 50% | 39 | 29.73 | 0.0 | ||||||
| 04 | 13:35 | NW 25 G 37 | 9.00 | Overcast and Breezy | SCT041 BKN048 OVC055 | 44.6 | 28.4 | 53% | 36 | 29.72 | 0.0 | ||||||
| 04 | 13:15 | NW 23 G 31 | 10.00 | Overcast and Breezy | SCT041 BKN048 OVC060 | 44.6 | 28.4 | 53% | 37 | 29.72 | 0.0 | ||||||
| 04 | 12:55 | NW 23 G 31 | 10.00 | Overcast and Breezy | BKN043 BKN049 OVC055 | 44.6 | 26.6 | 49% | 37 | 29.72 | 0.0 | ||||||
| 04 | 12:35 | NW 26 G 36 | 5.00 | Overcast with Haze and Windy | SCT044 OVC055 | 44.6 | 26.6 | 49% | 36 | 29.72 | 0.0 | ||||||
| 04 | 12:15 | NW 25 G 35 | 4.00 | Mostly Cloudy with Haze and Breezy | FEW042 BKN055 BKN065 | 46.4 | 24.8 | 43% | 38 | 29.72 | 0.0 | ||||||
| 04 | 11:55 | NW 22 G 31 | 10.00 | Overcast and Breezy | BKN041 OVC055 | 41 | 26.6 | 57% | 32 | 29.72 | 0.0 | ||||||
| 04 | 11:35 | NW 25 G 36 | 10.00 | Light Unknown Precip and Breezy | BKN042 BKN050 OVC065 | 42.8 | 24.8 | 49% | 34 | 29.71 | 0.0 | ||||||
| 04 | 11:15 | NW 26 G 36 | 10.00 | Overcast and Windy | FEW041 OVC060 | 42.8 | 26.6 | 53% | 34 | 29.71 | 0.0 | ||||||
| 04 | 10:55 | NW 25 G 35 | 10.00 | Light Unknown Precip and Breezy | BKN042 OVC055 | 41 | 24.8 | 53% | 31 | 29.71 | 0.0 | ||||||
| 04 | 10:35 | NW 23 G 30 | 10.00 | Light Unknown Precip and Breezy | BKN042 OVC050 | 41 | 24.8 | 53% | 32 | 29.71 | 0.0 | ||||||
| 04 | 10:15 | NW 25 G 33 | 10.00 | Light Unknown Precip and Breezy | FEW046 OVC055 | 41 | 23 | 49% | 31 | 29.7 | 0.0 | ||||||
| 04 | 09:55 | NW 25 | 10.00 | Light Unknown Precip and Breezy | SCT046 OVC050 | 41 | 23 | 49% | 31 | 29.71 | 0.0 | ||||||
| 04 | 09:35 | NW 21 G 31 | 10.00 | Overcast and Breezy | OVC046 | 39.2 | 21.2 | 48% | 30 | 29.71 | 0.0 | ||||||
| 04 | 09:15 | N 23 G 32 | 10.00 | Mostly Cloudy and Breezy | BKN047 | 41 | 21.2 | 45% | 32 | 29.71 | 0.0 | ||||||
| 04 | 08:55 | NW 28 G 40 | 10.00 | Partly Cloudy and Windy | SCT046 | 41 | 21.2 | 45% | 31 | 29.7 | 0.0 | ||||||
| 04 | 08:35 | NW 32 G 39 | 10.00 | Light Unknown Precip and Windy | SCT041 SCT048 | 39.2 | 21.2 | 48% | 28 | 29.69 | 0.0 | ||||||
| 04 | 08:15 | NW 28 G 38 | 10.00 | Light Unknown Precip and Windy | SCT032 OVC040 | 39.2 | 24.8 | 56% | 29 | 29.68 | 0.0 | ||||||
| 04 | 07:55 | NW 24 | 10.00 | Light Unknown Precip and Breezy | BKN037 | 39.2 | 28.4 | 65% | 29 | 29.67 | 0.0 | ||||||
| 04 | 07:35 | NW 23 G 29 | 10.00 | Partly Cloudy and Breezy | FEW032 SCT039 | 39.2 | 28.4 | 65% | 29 | 29.67 | 0.0 | ||||||
| 04 | 07:15 | NW 25 G 32 | 10.00 | A Few Clouds and Breezy | FEW028 | 39.2 | 28.4 | 65% | 29 | 29.65 | 0.0 | ||||||
| 04 | 06:55 | NW 17 G 26 | 10.00 | Fair | CLR | 37.4 | 30.2 | 75% | 29 | 29.65 | 0.0 | ||||||
| 04 | 06:35 | NW 17 G 23 | 10.00 | Light Unknown Precip | CLR | 35.6 | 30.2 | 81% | 26 | 29.64 | 0.0 | ||||||
| 04 | 06:15 | NW 18 | 10.00 | Light Unknown Precip | CLR | 35.6 | 30.2 | 81% | 26 | 29.64 | 0.0 | ||||||
| 04 | 05:55 | NW 20 | 10.00 | Light Unknown Precip | CLR | 35.6 | 30.2 | 81% | 26 | 29.63 | 0.0 | ||||||
| 04 | 05:35 | NW 23 | 10.00 | Fair and Breezy | CLR | 37.4 | 30.2 | 75% | 27 | 29.61 | 0.0 | ||||||
| 04 | 05:15 | NW 26 G 32 | 10.00 | Light Unknown Precip and Windy | CLR | 37.4 | 30.2 | 75% | 26 | 29.61 | 0.0 | ||||||
| 04 | 04:55 | NW 16 G 26 | 10.00 | Light Unknown Precip | CLR | 37.4 | 30.2 | 75% | 29 | 29.61 | 0.0 | ||||||
| 04 | 04:35 | NW 23 G 35 | 10.00 | Fair and Breezy | CLR | 39.2 | 30.2 | 70% | 29 | 29.59 | 0.0 | ||||||
| 04 | 04:15 | NW 25 G 31 | 10.00 | Light Unknown Precip and Breezy | CLR | 41 | 32 | 70% | 31 | 29.59 | 0.0 | ||||||
| 04 | 03:55 | NW 23 G 35 | 10.00 | Light Unknown Precip and Breezy | CLR | 41 | 32 | 70% | 32 | 29.57 | 0.0 | ||||||
| 04 | 03:35 | NW 26 G 33 | 10.00 | Fair and Windy | CLR | 44.6 | 32 | 61% | 36 | 29.56 | 0.0 | ||||||
| 04 | 03:15 | NW 18 G 25 | 10.00 | Mostly Cloudy | BKN100 | 46.4 | 32 | 57% | 40 | 29.55 | 0.0 | ||||||
| 04 | 02:55 | NW 23 G 29 | 10.00 | Overcast and Breezy | SCT090 OVC110 | 48.2 | 32 | 54% | 41 | 29.54 | 0.0 | ||||||
| 04 | 02:35 | NW 21 | 10.00 | Mostly Cloudy and Breezy | BKN110 | 50 | 33.8 | 54% | 44 | 29.53 | 0.0 | ||||||
| 04 | 02:15 | NW 13 | 10.00 | Partly Cloudy | FEW075 SCT100 | 48.2 | 37.4 | 66% | 43 | 29.53 | 0.0 | ||||||
| 04 | 01:55 | NW 10 | 10.00 | Mostly Cloudy | FEW035 SCT048 BKN075 | 48.2 | 37.4 | 66% | 44 | 29.52 | 0.0 | ||||||
| 04 | 01:35 | NW 8 | 10.00 | Mostly Cloudy | FEW037 SCT048 BKN055 | 50 | 39.2 | 67% | 47 | 29.52 | 0.0 | ||||||
| 04 | 01:15 | NW 10 | 10.00 | Overcast | SCT038 BKN046 OVC070 | 50 | 39.2 | 67% | 46 | 29.54 | 0.0 | ||||||
| 04 | 00:55 | N 13 | 9.00 | Overcast | BKN043 BKN090 OVC120 | 50 | 41 | 71% | 46 | 29.54 | 0.0 | ||||||
| 04 | 00:35 | N 12 | 10.00 | Mostly Cloudy | SCT095 BKN120 | 50 | 39.2 | 67% | 46 | 29.54 | 0.0 | ||||||
| 04 | 00:15 | N 14 | 10.00 | Mostly Cloudy | BKN100 BKN120 | 50 | 39.2 | 67% | 45 | 29.54 | 0.0 | ||||||
| 03 | 23:55 | N 16 G 22 | 10.00 | Overcast | SCT047 OVC100 | 50 | 39.2 | 67% | 45 | 29.53 | 0.0 | ||||||
| 03 | 23:35 | N 20 G 29 | 10.00 | Overcast | BKN046 OVC100 | 51.8 | 39.2 | 62% | 29.53 | 0.0 | |||||||
| 03 | 23:15 | N 30 G 38 | 10.00 | Mostly Cloudy and Windy | FEW018 SCT030 BKN100 | 51.8 | 39.2 | 62% | 29.51 | 0.0 | |||||||
| 03 | 22:55 | N 33 G 51 | 4.00 | Mostly Cloudy with Haze and Windy | FEW003 SCT018 BKN033 | 53.6 | 39.2 | 58% | 29.49 | 0.0 | |||||||
| 03 | 22:35 | NW 35 G 41 | 9.00 | Mostly Cloudy and Windy | FEW020 SCT070 BKN095 | 62.6 | 39.2 | 42% | 29.44 | 0.0 | |||||||
| 03 | 22:15 | W 10 G 20 | 10.00 | Overcast | FEW060 SCT070 OVC090 | 64.4 | 37.4 | 37% | 29.43 | 0.0 | |||||||
| 03 | 21:55 | W 18 G 32 | 10.00 | Mostly Cloudy | FEW044 SCT060 BKN075 | 66.2 | 37.4 | 35% | 29.44 | 0.0 | |||||||
| 03 | 21:35 | NW 15 G 24 | 10.00 | Overcast | FEW005 SCT060 OVC100 | 66.2 | 37.4 | 35% | 29.45 | 0.0 | |||||||
| 03 | 21:15 | W 13 | 10.00 | Mostly Cloudy | FEW065 FEW075 BKN110 | 64.4 | 32 | 30% | 29.43 | 0.0 | |||||||
| 03 | 20:55 | SW 14 | 10.00 | Fair | CLR | 64.4 | 32 | 30% | 29.43 | 0.0 | |||||||
| 03 | 20:35 | SW 15 | 10.00 | Fair | CLR | 68 | 30.2 | 24% | 29.44 | 0.0 | |||||||
| 03 | 20:15 | W 14 G 21 | 10.00 | Fair | CLR | 69.8 | 30.2 | 23% | 29.45 | 0.0 | |||||||
| 03 | 19:55 | W 15 | 10.00 | Fair | CLR | 71.6 | 30.2 | 22% | 29.46 | 0.0 | |||||||
| 03 | 19:35 | W 22 | 10.00 | Fair and Breezy | CLR | 73.4 | 30.2 | 20% | 29.47 | 0.0 | |||||||
| 03 | 19:15 | W 18 G 30 | 10.00 | Fair | CLR | 73.4 | 30.2 | 20% | 29.49 | 0.0 | |||||||
| 03 | 18:55 | W 24 G 33 | 10.00 | Fair and Breezy | CLR | 73.4 | 30.2 | 20% | 29.5 | 0.0 | |||||||
| 03 | 18:35 | W 23 G 32 | 9.00 | A Few Clouds and Breezy | FEW120 | 73.4 | 28.4 | 19% | 29.51 | 0.0 | |||||||
| 03 | 18:15 | W 24 G 35 | 10.00 | Fair and Breezy | CLR | 75.2 | 30.2 | 19% | 76 | 29.52 | 0.0 | ||||||
| 03 | 17:55 | W 26 G 37 | 9.00 | Fair and Windy | CLR | 75.2 | 28.4 | 18% | 76 | 29.53 | 0.0 | ||||||
| 03 | 17:35 | W 26 G 36 | 9.00 | Fair and Windy | CLR | 75.2 | 30.2 | 19% | 76 | 29.54 | 0.0 | ||||||
| 03 | 17:15 | W 24 G 37 | 10.00 | Fair and Breezy | CLR | 73.4 | 28.4 | 19% | 29.55 | 0.0 | |||||||
| 03 | 16:55 | W 28 G 37 | 10.00 | A Few Clouds and Windy | FEW100 | 75.2 | 30.2 | 19% | 76 | 29.56 | 0.0 | ||||||
| 03 | 16:35 | W 26 G 39 | 10.00 | Fair and Windy | CLR | 75.2 | 28.4 | 18% | 76 | 29.58 | 0.0 | ||||||
| 03 | 16:15 | W 23 G 37 | 10.00 | Fair and Breezy | CLR | 73.4 | 30.2 | 20% | 29.59 | 0.0 | |||||||
| 03 | 15:55 | W 30 G 46 | 10.00 | A Few Clouds and Windy | FEW100 | 75.2 | 30.2 | 19% | 76 | 29.61 | 0.0 | ||||||
| 03 | 15:35 | W 24 G 40 | 10.00 | A Few Clouds and Breezy | FEW100 | 73.4 | 28.4 | 19% | 29.63 | 0.0 | |||||||
| 03 | 15:15 | W 25 G 36 | 9.00 | Fair and Breezy | CLR | 75.2 | 28.4 | 18% | 76 | 29.64 | 0.0 | ||||||
| 03 | 14:55 | W 25 G 35 | 9.00 | Fair and Breezy | CLR | 73.4 | 28.4 | 19% | 29.66 | 0.0 | |||||||
| 03 | 14:35 | W 24 G 37 | 10.00 | A Few Clouds and Breezy | FEW095 | 73.4 | 28.4 | 19% | 29.67 | 0.0 | |||||||
| 03 | 13:55 | W 25 G 38 | 10.00 | Fair and Breezy | CLR | 73.4 | 30.2 | 20% | 29.7 | 0.0 | |||||||
| 03 | 13:35 | W 20 G 31 | 10.00 | Fair | CLR | 71.6 | 30.2 | 22% | 29.72 | 0.0 | |||||||
| 03 | 13:15 | W 17 G 26 | 10.00 | A Few Clouds | FEW085 | 71.6 | 32 | 23% | 29.73 | 0.0 | |||||||
| 03 | 12:55 | W 22 G 31 | 10.00 | A Few Clouds and Breezy | FEW085 | 69.8 | 30.2 | 23% | 29.75 | 0.0 | |||||||
| Date | Time (cdt) | Wind (mph) | Vis. (mi.) | Weather | Sky Cond. | Air | Dwpt | Max. | Min. | Relative Humidity | Wind Chill (°F) | Heat Index (°F) | altimeter (in) | sea level (mb) | 1 hr | 3 hr | 6 hr |
| 6 hour | |||||||||||||||||
| Temperature (ºF) | Pressure | Precipitation (in) | |||||||||||||||